sensor_id;sensor_type;location;lat;lon;timestamp;pressure;altitude;pressure_sealevel;temperature;humidity
68712;BME280;55690;51.566;19.198;2023-03-18T00:01:48;101917.94;;;7.24;62.65
68712;BME280;55690;51.566;19.198;2023-03-18T00:10:09;101916.75;;;7.31;62.57
68712;BME280;55690;51.566;19.198;2023-03-18T00:14:12;101919.01;;;7.20;62.91
68712;BME280;55690;51.566;19.198;2023-03-18T00:18:14;101908.19;;;6.98;62.50
68712;BME280;55690;51.566;19.198;2023-03-18T00:22:19;101906.13;;;7.05;63.04
68712;BME280;55690;51.566;19.198;2023-03-18T00:26:26;101909.34;;;7.14;62.89
68712;BME280;55690;51.566;19.198;2023-03-18T00:30:32;101903.74;;;7.19;62.99
68712;BME280;55690;51.566;19.198;2023-03-18T00:34:37;101893.71;;;7.43;62.42
68712;BME280;55690;51.566;19.198;2023-03-18T00:38:45;101888.35;;;7.21;62.60
68712;BME280;55690;51.566;19.198;2023-03-18T00:42:50;101882.56;;;7.30;62.52
68712;BME280;55690;51.566;19.198;2023-03-18T00:47:04;101888.16;;;6.82;63.31
68712;BME280;55690;51.566;19.198;2023-03-18T00:51:06;101891.91;;;6.99;63.03
68712;BME280;55690;51.566;19.198;2023-03-18T00:55:09;101883.44;;;7.09;62.83
68712;BME280;55690;51.566;19.198;2023-03-18T00:59:14;101876.55;;;6.80;63.46
68712;BME280;55690;51.566;19.198;2023-03-18T01:03:21;101873.26;;;6.93;63.23
68712;BME280;55690;51.566;19.198;2023-03-18T01:07:27;101866.23;;;7.11;62.80
68712;BME280;55690;51.566;19.198;2023-03-18T01:11:33;101862.29;;;7.40;62.45
68712;BME280;55690;51.566;19.198;2023-03-18T01:15:39;101851.41;;;6.99;62.94
68712;BME280;55690;51.566;19.198;2023-03-18T01:19:46;101854.93;;;7.01;63.15
68712;BME280;55690;51.566;19.198;2023-03-18T01:23:51;101852.77;;;6.89;63.41
68712;BME280;55690;51.566;19.198;2023-03-18T01:27:58;101837.91;;;6.99;63.22
68712;BME280;55690;51.566;19.198;2023-03-18T01:32:05;101843.40;;;6.76;63.68
68712;BME280;55690;51.566;19.198;2023-03-18T01:36:10;101842.35;;;6.35;64.46
68712;BME280;55690;51.566;19.198;2023-03-18T01:40:16;101834.48;;;6.74;64.16
68712;BME280;55690;51.566;19.198;2023-03-18T01:44:23;101839.30;;;6.21;64.79
68712;BME280;55690;51.566;19.198;2023-03-18T01:48:31;101837.07;;;6.32;64.69
68712;BME280;55690;51.566;19.198;2023-03-18T01:52:35;101845.13;;;6.55;64.23
68712;BME280;55690;51.566;19.198;2023-03-18T01:56:43;101848.15;;;6.48;64.35
68712;BME280;55690;51.566;19.198;2023-03-18T02:00:51;101854.96;;;6.34;64.36
68712;BME280;55690;51.566;19.198;2023-03-18T02:04:58;101848.51;;;5.92;65.35
68712;BME280;55690;51.566;19.198;2023-03-18T02:09:02;101846.30;;;6.03;64.96
68712;BME280;55690;51.566;19.198;2023-03-18T02:13:09;101849.29;;;6.64;64.42
68712;BME280;55690;51.566;19.198;2023-03-18T02:17:16;101852.07;;;6.84;63.47
68712;BME280;55690;51.566;19.198;2023-03-18T02:25:41;101850.39;;;6.37;63.90
68712;BME280;55690;51.566;19.198;2023-03-18T02:29:43;101844.77;;;6.64;63.61
68712;BME280;55690;51.566;19.198;2023-03-18T02:33:47;101846.03;;;6.09;64.47
68712;BME280;55690;51.566;19.198;2023-03-18T02:37:49;101845.41;;;6.71;63.64
68712;BME280;55690;51.566;19.198;2023-03-18T02:41:50;101838.82;;;6.78;63.49
68712;BME280;55690;51.566;19.198;2023-03-18T02:50:09;101844.35;;;6.30;63.98
68712;BME280;55690;51.566;19.198;2023-03-18T02:54:13;101851.85;;;6.22;64.20
68712;BME280;55690;51.566;19.198;2023-03-18T02:58:15;101843.34;;;6.32;64.25
68712;BME280;55690;51.566;19.198;2023-03-18T03:02:20;101844.70;;;6.21;64.21
68712;BME280;55690;51.566;19.198;2023-03-18T03:06:26;101834.42;;;6.07;64.28
68712;BME280;55690;51.566;19.198;2023-03-18T03:10:32;101842.77;;;6.24;64.37
68712;BME280;55690;51.566;19.198;2023-03-18T03:14:38;101836.13;;;6.33;64.10
68712;BME280;55690;51.566;19.198;2023-03-18T03:18:45;101821.36;;;6.20;63.93
68712;BME280;55690;51.566;19.198;2023-03-18T03:22:51;101837.02;;;6.33;63.93
68712;BME280;55690;51.566;19.198;2023-03-18T03:26:57;101831.03;;;6.49;63.81
68712;BME280;55690;51.566;19.198;2023-03-18T03:31:05;101844.46;;;5.79;65.29
68712;BME280;55690;51.566;19.198;2023-03-18T03:35:13;101835.19;;;5.62;65.29
68712;BME280;55690;51.566;19.198;2023-03-18T03:39:16;101829.63;;;5.92;65.27
68712;BME280;55690;51.566;19.198;2023-03-18T03:43:22;101830.93;;;5.80;65.32
68712;BME280;55690;51.566;19.198;2023-03-18T03:47:28;101831.00;;;6.04;64.77
68712;BME280;55690;51.566;19.198;2023-03-18T03:51:34;101834.61;;;5.78;65.35
68712;BME280;55690;51.566;19.198;2023-03-18T03:55:40;101823.77;;;5.79;65.35
68712;BME280;55690;51.566;19.198;2023-03-18T03:59:46;101835.19;;;5.62;66.07
68712;BME280;55690;51.566;19.198;2023-03-18T04:03:53;101828.89;;;5.87;65.29
68712;BME280;55690;51.566;19.198;2023-03-18T04:07:59;101834.53;;;5.56;65.88
68712;BME280;55690;51.566;19.198;2023-03-18T04:12:06;101828.01;;;5.86;65.17
68712;BME280;55690;51.566;19.198;2023-03-18T04:16:11;101821.30;;;5.73;65.01
68712;BME280;55690;51.566;19.198;2023-03-18T04:20:18;101827.25;;;5.83;65.29
68712;BME280;55690;51.566;19.198;2023-03-18T04:24:24;101832.30;;;5.67;65.31
68712;BME280;55690;51.566;19.198;2023-03-18T04:28:30;101832.98;;;5.49;65.94
68712;BME280;55690;51.566;19.198;2023-03-18T04:32:36;101833.91;;;5.97;65.06
68712;BME280;55690;51.566;19.198;2023-03-18T04:36:42;101845.77;;;5.67;65.54
68712;BME280;55690;51.566;19.198;2023-03-18T04:40:48;101846.49;;;5.72;65.54
68712;BME280;55690;51.566;19.198;2023-03-18T04:44:55;101852.33;;;5.85;64.98
68712;BME280;55690;51.566;19.198;2023-03-18T04:49:01;101843.52;;;5.80;65.45
68712;BME280;55690;51.566;19.198;2023-03-18T04:53:07;101843.04;;;5.44;65.72
68712;BME280;55690;51.566;19.198;2023-03-18T04:57:13;101851.41;;;5.61;65.54
68712;BME280;55690;51.566;19.198;2023-03-18T05:01:19;101855.63;;;5.43;65.80
68712;BME280;55690;51.566;19.198;2023-03-18T05:05:26;101857.42;;;5.18;66.56
68712;BME280;55690;51.566;19.198;2023-03-18T05:09:32;101851.27;;;5.64;65.75
68712;BME280;55690;51.566;19.198;2023-03-18T05:13:38;101845.83;;;5.65;65.74
68712;BME280;55690;51.566;19.198;2023-03-18T05:17:44;101847.27;;;5.76;65.59
68712;BME280;55690;51.566;19.198;2023-03-18T05:21:50;101858.27;;;5.69;65.96
68712;BME280;55690;51.566;19.198;2023-03-18T05:25:56;101848.48;;;5.67;65.61
68712;BME280;55690;51.566;19.198;2023-03-18T05:30:06;101861.37;;;5.59;66.08
68712;BME280;55690;51.566;19.198;2023-03-18T05:34:10;101860.11;;;5.94;65.43
68712;BME280;55690;51.566;19.198;2023-03-18T05:38:15;101859.80;;;5.77;65.55
68712;BME280;55690;51.566;19.198;2023-03-18T05:42:21;101864.21;;;5.79;65.72
68712;BME280;55690;51.566;19.198;2023-03-18T05:46:28;101860.22;;;5.91;65.34
68712;BME280;55690;51.566;19.198;2023-03-18T05:50:36;101868.66;;;5.80;65.29
68712;BME280;55690;51.566;19.198;2023-03-18T05:54:40;101867.26;;;5.95;65.42
68712;BME280;55690;51.566;19.198;2023-03-18T05:58:46;101867.20;;;5.96;65.06
68712;BME280;55690;51.566;19.198;2023-03-18T06:02:52;101871.61;;;5.99;65.25
68712;BME280;55690;51.566;19.198;2023-03-18T06:06:58;101876.95;;;6.24;65.25
68712;BME280;55690;51.566;19.198;2023-03-18T06:11:04;101878.27;;;5.89;65.33
68712;BME280;55690;51.566;19.198;2023-03-18T06:15:11;101875.35;;;6.18;64.89
68712;BME280;55690;51.566;19.198;2023-03-18T06:19:17;101883.41;;;6.43;64.40
68712;BME280;55690;51.566;19.198;2023-03-18T06:23:23;101878.13;;;6.40;64.39
68712;BME280;55690;51.566;19.198;2023-03-18T06:27:29;101873.59;;;6.17;64.92
68712;BME280;55690;51.566;19.198;2023-03-18T06:31:35;101874.55;;;6.40;64.82
68712;BME280;55690;51.566;19.198;2023-03-18T06:35:42;101872.27;;;6.74;64.62
68712;BME280;55690;51.566;19.198;2023-03-18T06:39:48;101884.20;;;6.68;64.31
68712;BME280;55690;51.566;19.198;2023-03-18T06:43:54;101867.39;;;7.68;63.17
68712;BME280;55690;51.566;19.198;2023-03-18T06:48:00;101858.40;;;7.67;62.68
68712;BME280;55690;51.566;19.198;2023-03-18T06:52:07;101864.99;;;8.01;61.61
68712;BME280;55690;51.566;19.198;2023-03-18T06:56:13;101871.08;;;7.86;61.46
68712;BME280;55690;51.566;19.198;2023-03-18T07:00:19;101866.48;;;8.27;60.98
68712;BME280;55690;51.566;19.198;2023-03-18T07:04:25;101871.79;;;8.86;59.87
68712;BME280;55690;51.566;19.198;2023-03-18T07:08:31;101870.86;;;9.41;58.81
68712;BME280;55690;51.566;19.198;2023-03-18T07:12:37;101863.91;;;9.70;57.65
68712;BME280;55690;51.566;19.198;2023-03-18T07:16:43;101867.31;;;10.41;56.71
68712;BME280;55690;51.566;19.198;2023-03-18T07:20:50;101851.33;;;11.29;56.21
68712;BME280;55690;51.566;19.198;2023-03-18T07:24:56;101853.26;;;11.27;56.39
68712;BME280;55690;51.566;19.198;2023-03-18T07:29:03;101857.34;;;10.88;55.57
68712;BME280;55690;51.566;19.198;2023-03-18T07:33:08;101844.25;;;11.56;55.37
68712;BME280;55690;51.566;19.198;2023-03-18T07:37:14;101842.54;;;11.70;55.18
68712;BME280;55690;51.566;19.198;2023-03-18T07:41:20;101840.00;;;11.37;54.85
68712;BME280;55690;51.566;19.198;2023-03-18T07:45:27;101835.13;;;11.72;54.57
68712;BME280;55690;51.566;19.198;2023-03-18T07:49:33;101840.08;;;12.23;54.27
68712;BME280;55690;51.566;19.198;2023-03-18T07:53:39;101829.96;;;12.25;53.94
68712;BME280;55690;51.566;19.198;2023-03-18T07:57:45;101841.44;;;12.30;53.70
68712;BME280;55690;51.566;19.198;2023-03-18T08:01:51;101832.01;;;12.22;53.26
68712;BME280;55690;51.566;19.198;2023-03-18T08:05:58;101848.15;;;12.25;53.02
68712;BME280;55690;51.566;19.198;2023-03-18T08:10:05;101852.72;;;12.24;53.61
68712;BME280;55690;51.566;19.198;2023-03-18T08:14:10;101851.46;;;12.30;52.58
68712;BME280;55690;51.566;19.198;2023-03-18T08:18:16;101843.93;;;12.62;53.88
68712;BME280;55690;51.566;19.198;2023-03-18T08:22:22;101813.76;;;13.33;52.73
68712;BME280;55690;51.566;19.198;2023-03-18T08:26:28;101830.20;;;13.96;52.63
68712;BME280;55690;51.566;19.198;2023-03-18T08:30:37;101820.06;;;13.86;51.83
68712;BME280;55690;51.566;19.198;2023-03-18T08:34:42;101827.70;;;13.81;52.00
68712;BME280;55690;51.566;19.198;2023-03-18T08:38:47;101827.95;;;13.38;50.88
68712;BME280;55690;51.566;19.198;2023-03-18T08:42:53;101822.50;;;13.51;50.95
68712;BME280;55690;51.566;19.198;2023-03-18T08:46:59;101811.41;;;14.05;51.16
68712;BME280;55690;51.566;19.198;2023-03-18T08:51:06;101799.77;;;14.88;49.91
68712;BME280;55690;51.566;19.198;2023-03-18T08:55:12;101807.03;;;14.77;50.90
68712;BME280;55690;51.566;19.198;2023-03-18T08:59:18;101809.30;;;14.59;50.38
68712;BME280;55690;51.566;19.198;2023-03-18T09:03:24;101802.58;;;15.00;49.86
68712;BME280;55690;51.566;19.198;2023-03-18T09:07:30;101789.14;;;15.55;49.33
68712;BME280;55690;51.566;19.198;2023-03-18T09:11:37;101791.31;;;15.74;47.19
68712;BME280;55690;51.566;19.198;2023-03-18T09:15:42;101780.03;;;16.46;46.90
68712;BME280;55690;51.566;19.198;2023-03-18T09:19:49;101799.45;;;15.52;45.54
68712;BME280;55690;51.566;19.198;2023-03-18T09:23:55;101803.85;;;15.66;45.33
68712;BME280;55690;51.566;19.198;2023-03-18T09:28:01;101800.16;;;15.78;44.95
68712;BME280;55690;51.566;19.198;2023-03-18T09:32:07;101805.23;;;15.36;44.57
68712;BME280;55690;51.566;19.198;2023-03-18T09:36:13;101799.82;;;15.93;45.06
68712;BME280;55690;51.566;19.198;2023-03-18T09:40:27;101785.97;;;16.62;45.03
68712;BME280;55690;51.566;19.198;2023-03-18T09:44:31;101794.59;;;15.90;44.02
68712;BME280;55690;51.566;19.198;2023-03-18T09:56:59;101792.42;;;15.72;44.39
68712;BME280;55690;51.566;19.198;2023-03-18T10:01:03;101788.24;;;16.12;45.35
68712;BME280;55690;51.566;19.198;2023-03-18T10:05:16;101793.73;;;15.55;45.56
68712;BME280;55690;51.566;19.198;2023-03-18T10:09:28;101780.17;;;15.53;45.20
68712;BME280;55690;51.566;19.198;2023-03-18T10:13:35;101780.13;;;15.07;45.13
68712;BME280;55690;51.566;19.198;2023-03-18T10:17:42;101780.29;;;14.93;44.88
68712;BME280;55690;51.566;19.198;2023-03-18T10:21:59;101782.84;;;14.83;45.68
68712;BME280;55690;51.566;19.198;2023-03-18T10:26:07;101779.66;;;15.13;45.55
68712;BME280;55690;51.566;19.198;2023-03-18T10:34:33;101766.92;;;15.36;45.80
68712;BME280;55690;51.566;19.198;2023-03-18T10:38:17;101769.77;;;15.70;46.00
68712;BME280;55690;51.566;19.198;2023-03-18T10:42:17;101765.00;;;15.60;45.92
68712;BME280;55690;51.566;19.198;2023-03-18T10:46:21;101766.50;;;14.94;46.48
68712;BME280;55690;51.566;19.198;2023-03-18T10:50:31;101765.78;;;14.56;45.68
68712;BME280;55690;51.566;19.198;2023-03-18T10:54:40;101760.40;;;15.26;46.24
68712;BME280;55690;51.566;19.198;2023-03-18T10:58:42;101757.55;;;15.27;46.05
68712;BME280;55690;51.566;19.198;2023-03-18T11:02:43;101753.87;;;15.05;45.84
68712;BME280;55690;51.566;19.198;2023-03-18T11:15:18;101747.47;;;15.63;45.79
68712;BME280;55690;51.566;19.198;2023-03-18T11:19:35;101751.95;;;15.64;45.49
68712;BME280;55690;51.566;19.198;2023-03-18T11:23:37;101745.55;;;15.06;45.51
68712;BME280;55690;51.566;19.198;2023-03-18T11:27:57;101739.03;;;15.77;45.08
68712;BME280;55690;51.566;19.198;2023-03-18T11:32:00;101740.16;;;16.30;45.20
68712;BME280;55690;51.566;19.198;2023-03-18T11:36:07;101731.04;;;15.63;45.03
68712;BME280;55690;51.566;19.198;2023-03-18T11:44:30;101710.32;;;16.71;44.13
68712;BME280;55690;51.566;19.198;2023-03-18T11:48:38;101706.09;;;16.99;44.66
68712;BME280;55690;51.566;19.198;2023-03-18T11:57:00;101699.48;;;16.69;43.57
68712;BME280;55690;51.566;19.198;2023-03-18T12:09:46;101693.45;;;17.07;42.39
68712;BME280;55690;51.566;19.198;2023-03-18T12:18:12;101693.97;;;17.01;42.19
68712;BME280;55690;51.566;19.198;2023-03-18T12:26:54;101696.73;;;17.43;42.11
68712;BME280;55690;51.566;19.198;2023-03-18T12:35:11;101689.43;;;18.04;41.27
68712;BME280;55690;51.566;19.198;2023-03-18T12:39:26;101699.28;;;17.55;41.35
68712;BME280;55690;51.566;19.198;2023-03-18T12:47:44;101677.73;;;17.72;40.78
68712;BME280;55690;51.566;19.198;2023-03-18T12:56:08;101683.71;;;17.86;41.23
68712;BME280;55690;51.566;19.198;2023-03-18T13:00:18;101688.52;;;17.94;41.88
68712;BME280;55690;51.566;19.198;2023-03-18T13:04:28;101678.61;;;18.12;42.24
68712;BME280;55690;51.566;19.198;2023-03-18T13:12:48;101676.77;;;17.61;42.61
68712;BME280;55690;51.566;19.198;2023-03-18T13:16:52;101674.70;;;17.54;42.81
68712;BME280;55690;51.566;19.198;2023-03-18T13:20:57;101673.14;;;17.61;43.32
68712;BME280;55690;51.566;19.198;2023-03-18T13:29:21;101666.53;;;17.94;42.52
68712;BME280;55690;51.566;19.198;2023-03-18T13:46:03;101671.41;;;17.39;41.52
68712;BME280;55690;51.566;19.198;2023-03-18T13:50:51;101672.94;;;16.90;41.55
68712;BME280;55690;51.566;19.198;2023-03-18T13:54:15;101669.93;;;16.93;41.21
68712;BME280;55690;51.566;19.198;2023-03-18T13:58:22;101660.64;;;17.68;41.41
68712;BME280;55690;51.566;19.198;2023-03-18T14:02:33;101664.47;;;17.86;41.96
68712;BME280;55690;51.566;19.198;2023-03-18T14:06:51;101666.56;;;17.22;41.72
68712;BME280;55690;51.566;19.198;2023-03-18T14:19:25;101664.00;;;16.88;41.69
68712;BME280;55690;51.566;19.198;2023-03-18T14:23:37;101664.56;;;16.60;41.95
68712;BME280;55690;51.566;19.198;2023-03-18T14:31:59;101662.84;;;16.91;42.50
68712;BME280;55690;51.566;19.198;2023-03-18T14:36:08;101662.55;;;17.26;42.13
68712;BME280;55690;51.566;19.198;2023-03-18T14:40:15;101665.40;;;17.04;42.55
68712;BME280;55690;51.566;19.198;2023-03-18T14:44:28;101663.28;;;17.28;42.21
68712;BME280;55690;51.566;19.198;2023-03-18T14:48:33;101656.34;;;16.92;42.56
68712;BME280;55690;51.566;19.198;2023-03-18T14:52:38;101655.77;;;17.09;42.55
68712;BME280;55690;51.566;19.198;2023-03-18T15:01:00;101656.07;;;16.74;42.60
68712;BME280;55690;51.566;19.198;2023-03-18T15:05:05;101656.34;;;16.60;42.94
68712;BME280;55690;51.566;19.198;2023-03-18T15:09:18;101653.12;;;16.66;42.89
68712;BME280;55690;51.566;19.198;2023-03-18T15:13:24;101654.55;;;16.81;43.54
68712;BME280;55690;51.566;19.198;2023-03-18T15:17:26;101657.66;;;16.45;43.70
68712;BME280;55690;51.566;19.198;2023-03-18T15:21:29;101651.38;;;16.54;43.52
68712;BME280;55690;51.566;19.198;2023-03-18T15:25:34;101658.66;;;16.44;44.14
68712;BME280;55690;51.566;19.198;2023-03-18T15:29:47;101638.28;;;16.03;44.34
68712;BME280;55690;51.566;19.198;2023-03-18T15:38:12;101653.91;;;16.46;44.84
68712;BME280;55690;51.566;19.198;2023-03-18T15:42:18;101663.07;;;16.56;44.76
68712;BME280;55690;51.566;19.198;2023-03-18T15:46:26;101668.29;;;16.27;44.42
68712;BME280;55690;51.566;19.198;2023-03-18T15:50:31;101668.42;;;16.14;45.08
68712;BME280;55690;51.566;19.198;2023-03-18T15:54:38;101671.19;;;15.92;45.53
68712;BME280;55690;51.566;19.198;2023-03-18T15:58:41;101660.95;;;16.59;44.98
68712;BME280;55690;51.566;19.198;2023-03-18T16:02:45;101665.95;;;16.66;44.70
68712;BME280;55690;51.566;19.198;2023-03-18T16:06:47;101677.98;;;16.85;44.75
68712;BME280;55690;51.566;19.198;2023-03-18T16:10:57;101673.41;;;16.95;44.73
68712;BME280;55690;51.566;19.198;2023-03-18T16:15:01;101679.41;;;17.21;44.50
68712;BME280;55690;51.566;19.198;2023-03-18T16:23:17;101694.80;;;16.38;45.71
68712;BME280;55690;51.566;19.198;2023-03-18T16:28:08;101699.55;;;16.24;45.57
68712;BME280;55690;51.566;19.198;2023-03-18T16:31:34;101704.92;;;16.15;45.86
68712;BME280;55690;51.566;19.198;2023-03-18T16:35:36;101700.18;;;16.17;45.83
68712;BME280;55690;51.566;19.198;2023-03-18T16:39:45;101700.41;;;16.36;45.80
68712;BME280;55690;51.566;19.198;2023-03-18T16:43:47;101709.27;;;16.17;46.24
68712;BME280;55690;51.566;19.198;2023-03-18T16:47:50;101704.04;;;15.70;46.95
68712;BME280;55690;51.566;19.198;2023-03-18T16:51:54;101717.34;;;15.63;46.75
68712;BME280;55690;51.566;19.198;2023-03-18T16:56:03;101712.96;;;15.49;47.65
68712;BME280;55690;51.566;19.198;2023-03-18T17:00:16;101711.94;;;15.39;47.78
68712;BME280;55690;51.566;19.198;2023-03-18T17:04:28;101712.26;;;15.23;47.81
68712;BME280;55690;51.566;19.198;2023-03-18T17:08:30;101706.62;;;15.03;48.38
68712;BME280;55690;51.566;19.198;2023-03-18T17:12:31;101709.01;;;14.83;49.44
68712;BME280;55690;51.566;19.198;2023-03-18T17:16:33;101708.55;;;14.89;48.43
68712;BME280;55690;51.566;19.198;2023-03-18T17:20:35;101711.65;;;14.61;48.81
68712;BME280;55690;51.566;19.198;2023-03-18T17:24:37;101706.98;;;14.50;49.22
68712;BME280;55690;51.566;19.198;2023-03-18T17:28:41;101714.20;;;14.39;49.36
68712;BME280;55690;51.566;19.198;2023-03-18T17:32:44;101713.77;;;14.45;49.56
68712;BME280;55690;51.566;19.198;2023-03-18T17:36:47;101713.39;;;14.25;50.48
68712;BME280;55690;51.566;19.198;2023-03-18T17:40:49;101704.92;;;13.92;51.10
68712;BME280;55690;51.566;19.198;2023-03-18T17:44:51;101707.46;;;13.82;51.70
68712;BME280;55690;51.566;19.198;2023-03-18T17:48:53;101723.52;;;13.74;51.44
68712;BME280;55690;51.566;19.198;2023-03-18T17:52:55;101723.94;;;13.55;52.13
68712;BME280;55690;51.566;19.198;2023-03-18T17:56:58;101724.48;;;13.48;52.87
68712;BME280;55690;51.566;19.198;2023-03-18T18:01:09;101721.64;;;13.24;52.61
68712;BME280;55690;51.566;19.198;2023-03-18T18:05:17;101724.79;;;13.18;52.59
68712;BME280;55690;51.566;19.198;2023-03-18T18:09:18;101713.29;;;13.13;52.22
68712;BME280;55690;51.566;19.198;2023-03-18T18:13:22;101719.52;;;13.15;52.88
68712;BME280;55690;51.566;19.198;2023-03-18T18:17:24;101721.88;;;12.94;52.90
68712;BME280;55690;51.566;19.198;2023-03-18T18:21:25;101722.85;;;12.66;53.57
68712;BME280;55690;51.566;19.198;2023-03-18T18:25:27;101724.13;;;12.60;54.17
68712;BME280;55690;51.566;19.198;2023-03-18T18:29:30;101726.20;;;12.57;55.20
68712;BME280;55690;51.566;19.198;2023-03-18T18:33:33;101718.98;;;12.29;54.84
68712;BME280;55690;51.566;19.198;2023-03-18T18:37:35;101728.87;;;12.03;56.45
68712;BME280;55690;51.566;19.198;2023-03-18T18:41:37;101731.10;;;11.96;56.14
68712;BME280;55690;51.566;19.198;2023-03-18T18:45:40;101726.05;;;12.05;54.65
68712;BME280;55690;51.566;19.198;2023-03-18T18:49:42;101724.98;;;12.07;54.34
68712;BME280;55690;51.566;19.198;2023-03-18T18:53:46;101728.22;;;12.26;53.94
68712;BME280;55690;51.566;19.198;2023-03-18T18:57:49;101722.25;;;12.07;53.06
68712;BME280;55690;51.566;19.198;2023-03-18T19:01:53;101732.22;;;12.21;53.61
68712;BME280;55690;51.566;19.198;2023-03-18T19:05:57;101723.23;;;12.06;53.97
68712;BME280;55690;51.566;19.198;2023-03-18T19:09:59;101722.25;;;11.93;53.26
68712;BME280;55690;51.566;19.198;2023-03-18T19:14:30;101731.39;;;11.92;53.49
68712;BME280;55690;51.566;19.198;2023-03-18T19:18:21;101721.38;;;11.92;53.21
68712;BME280;55690;51.566;19.198;2023-03-18T19:22:24;101725.07;;;11.91;53.58
68712;BME280;55690;51.566;19.198;2023-03-18T19:26:26;101725.66;;;11.82;53.50
68712;BME280;55690;51.566;19.198;2023-03-18T19:30:27;101723.13;;;11.79;54.02
68712;BME280;55690;51.566;19.198;2023-03-18T19:34:29;101728.57;;;11.79;53.94
68712;BME280;55690;51.566;19.198;2023-03-18T19:38:34;101735.66;;;11.82;53.78
68712;BME280;55690;51.566;19.198;2023-03-18T19:42:36;101750.05;;;11.84;53.67
68712;BME280;55690;51.566;19.198;2023-03-18T19:46:39;101746.55;;;11.82;54.01
68712;BME280;55690;51.566;19.198;2023-03-18T19:50:41;101743.40;;;11.74;54.22
68712;BME280;55690;51.566;19.198;2023-03-18T19:54:43;101751.00;;;11.69;54.50
68712;BME280;55690;51.566;19.198;2023-03-18T19:58:45;101747.20;;;11.57;54.15
68712;BME280;55690;51.566;19.198;2023-03-18T20:02:46;101745.26;;;11.59;54.40
68712;BME280;55690;51.566;19.198;2023-03-18T20:06:54;101743.13;;;11.64;54.52
68712;BME280;55690;51.566;19.198;2023-03-18T20:10:55;101747.70;;;11.63;55.13
68712;BME280;55690;51.566;19.198;2023-03-18T20:14:58;101746.22;;;11.58;54.96
68712;BME280;55690;51.566;19.198;2023-03-18T20:19:02;101745.73;;;11.51;55.45
68712;BME280;55690;51.566;19.198;2023-03-18T20:27:16;101745.16;;;11.60;55.01
68712;BME280;55690;51.566;19.198;2023-03-18T20:31:17;101733.30;;;11.61;54.96
68712;BME280;55690;51.566;19.198;2023-03-18T20:35:19;101740.00;;;11.56;55.47
68712;BME280;55690;51.566;19.198;2023-03-18T20:39:21;101734.97;;;11.64;54.88
68712;BME280;55690;51.566;19.198;2023-03-18T20:43:25;101734.09;;;11.63;55.20
68712;BME280;55690;51.566;19.198;2023-03-18T20:47:28;101733.38;;;11.46;55.15
68712;BME280;55690;51.566;19.198;2023-03-18T20:51:32;101729.56;;;11.34;55.05
68712;BME280;55690;51.566;19.198;2023-03-18T20:55:37;101734.73;;;11.39;56.94
68712;BME280;55690;51.566;19.198;2023-03-18T20:59:39;101735.34;;;11.58;55.63
68712;BME280;55690;51.566;19.198;2023-03-18T21:03:42;101728.41;;;11.38;55.38
68712;BME280;55690;51.566;19.198;2023-03-18T21:07:45;101735.88;;;11.34;56.27
68712;BME280;55690;51.566;19.198;2023-03-18T21:11:49;101727.22;;;11.28;55.45
68712;BME280;55690;51.566;19.198;2023-03-18T21:15:51;101721.59;;;11.17;56.18
68712;BME280;55690;51.566;19.198;2023-03-18T21:19:55;101726.43;;;11.12;56.25
68712;BME280;55690;51.566;19.198;2023-03-18T21:23:57;101719.24;;;11.11;56.34
68712;BME280;55690;51.566;19.198;2023-03-18T21:27:59;101718.88;;;11.17;56.20
68712;BME280;55690;51.566;19.198;2023-03-18T21:32:01;101716.34;;;11.14;56.89
68712;BME280;55690;51.566;19.198;2023-03-18T21:36:03;101712.32;;;11.05;56.30
68712;BME280;55690;51.566;19.198;2023-03-18T21:40:13;101701.45;;;11.05;56.05
68712;BME280;55690;51.566;19.198;2023-03-18T21:44:15;101714.45;;;11.00;56.17
68712;BME280;55690;51.566;19.198;2023-03-18T21:48:17;101718.55;;;11.07;56.05
68712;BME280;55690;51.566;19.198;2023-03-18T21:56:31;101714.11;;;10.90;56.25
68712;BME280;55690;51.566;19.198;2023-03-18T22:00:33;101718.46;;;10.79;56.17
68712;BME280;55690;51.566;19.198;2023-03-18T22:04:34;101721.89;;;10.66;56.34
68712;BME280;55690;51.566;19.198;2023-03-18T22:08:36;101719.02;;;10.54;56.88
68712;BME280;55690;51.566;19.198;2023-03-18T22:12:37;101718.93;;;10.55;56.29
68712;BME280;55690;51.566;19.198;2023-03-18T22:16:38;101711.92;;;10.51;56.40
68712;BME280;55690;51.566;19.198;2023-03-18T22:20:41;101717.01;;;10.57;57.11
68712;BME280;55690;51.566;19.198;2023-03-18T22:24:44;101724.88;;;10.46;57.02
68712;BME280;55690;51.566;19.198;2023-03-18T22:28:47;101730.31;;;10.62;56.26
68712;BME280;55690;51.566;19.198;2023-03-18T22:32:51;101728.99;;;10.69;56.14
68712;BME280;55690;51.566;19.198;2023-03-18T22:36:57;101732.06;;;10.63;55.79
68712;BME280;55690;51.566;19.198;2023-03-18T22:41:03;101725.77;;;10.47;56.06
68712;BME280;55690;51.566;19.198;2023-03-18T22:49:22;101725.41;;;10.53;56.29
68712;BME280;55690;51.566;19.198;2023-03-18T22:53:27;101725.68;;;10.48;56.20
68712;BME280;55690;51.566;19.198;2023-03-18T22:57:29;101729.99;;;10.21;57.01
68712;BME280;55690;51.566;19.198;2023-03-18T23:01:34;101723.12;;;10.14;56.59
68712;BME280;55690;51.566;19.198;2023-03-18T23:05:40;101724.65;;;10.19;56.46
68712;BME280;55690;51.566;19.198;2023-03-18T23:09:46;101725.82;;;10.14;56.70
68712;BME280;55690;51.566;19.198;2023-03-18T23:13:52;101729.65;;;10.27;56.35
68712;BME280;55690;51.566;19.198;2023-03-18T23:17:59;101729.31;;;10.00;56.68
68712;BME280;55690;51.566;19.198;2023-03-18T23:22:05;101722.67;;;10.06;56.66